sensor_id;sensor_type;location;lat;lon;timestamp;P1;durP1;ratioP1;P2;durP2;ratioP2
76599;SDS011;65489;52.048;6.090;2023-04-06T00:00:45;0.60;;;0.50;;
76599;SDS011;65489;52.048;6.090;2023-04-06T00:03:11;0.93;;;0.55;;
76599;SDS011;65489;52.048;6.090;2023-04-06T00:05:36;0.60;;;0.50;;
76599;SDS011;65489;52.048;6.090;2023-04-06T00:08:02;0.93;;;0.40;;
76599;SDS011;65489;52.048;6.090;2023-04-06T00:10:27;0.70;;;0.50;;
76599;SDS011;65489;52.048;6.090;2023-04-06T00:12:53;0.52;;;0.45;;
76599;SDS011;65489;52.048;6.090;2023-04-06T00:15:19;0.65;;;0.45;;
76599;SDS011;65489;52.048;6.090;2023-04-06T00:17:45;1.15;;;0.30;;
76599;SDS011;65489;52.048;6.090;2023-04-06T00:20:10;0.80;;;0.40;;
76599;SDS011;65489;52.048;6.090;2023-04-06T00:22:36;0.60;;;0.40;;
76599;SDS011;65489;52.048;6.090;2023-04-06T00:25:01;0.50;;;0.30;;
76599;SDS011;65489;52.048;6.090;2023-04-06T00:27:27;0.55;;;0.30;;
76599;SDS011;65489;52.048;6.090;2023-04-06T00:29:52;0.73;;;0.40;;
76599;SDS011;65489;52.048;6.090;2023-04-06T00:32:18;0.68;;;0.50;;
76599;SDS011;65489;52.048;6.090;2023-04-06T00:34:43;0.70;;;0.40;;
76599;SDS011;65489;52.048;6.090;2023-04-06T00:37:10;0.60;;;0.30;;
76599;SDS011;65489;52.048;6.090;2023-04-06T00:39:36;2.05;;;0.40;;
76599;SDS011;65489;52.048;6.090;2023-04-06T00:42:01;1.02;;;0.50;;
76599;SDS011;65489;52.048;6.090;2023-04-06T00:44:35;0.60;;;0.40;;
76599;SDS011;65489;52.048;6.090;2023-04-06T00:47:00;0.65;;;0.40;;
76599;SDS011;65489;52.048;6.090;2023-04-06T00:49:26;0.90;;;0.40;;
76599;SDS011;65489;52.048;6.090;2023-04-06T00:51:52;0.70;;;0.50;;
76599;SDS011;65489;52.048;6.090;2023-04-06T00:54:18;0.40;;;0.30;;
76599;SDS011;65489;52.048;6.090;2023-04-06T00:56:43;0.70;;;0.50;;
76599;SDS011;65489;52.048;6.090;2023-04-06T00:59:09;0.52;;;0.40;;
76599;SDS011;65489;52.048;6.090;2023-04-06T01:01:36;0.80;;;0.50;;
76599;SDS011;65489;52.048;6.090;2023-04-06T01:04:11;0.63;;;0.38;;
76599;SDS011;65489;52.048;6.090;2023-04-06T01:06:40;0.95;;;0.40;;
76599;SDS011;65489;52.048;6.090;2023-04-06T01:09:06;0.70;;;0.50;;
76599;SDS011;65489;52.048;6.090;2023-04-06T01:11:31;1.95;;;0.60;;
76599;SDS011;65489;52.048;6.090;2023-04-06T01:13:57;1.42;;;0.50;;
76599;SDS011;65489;52.048;6.090;2023-04-06T01:16:31;0.45;;;0.30;;
76599;SDS011;65489;52.048;6.090;2023-04-06T01:19:11;0.68;;;0.50;;
76599;SDS011;65489;52.048;6.090;2023-04-06T01:21:41;0.52;;;0.40;;
76599;SDS011;65489;52.048;6.090;2023-04-06T01:24:33;0.90;;;0.40;;
76599;SDS011;65489;52.048;6.090;2023-04-06T01:27:01;0.60;;;0.38;;
76599;SDS011;65489;52.048;6.090;2023-04-06T01:29:35;0.50;;;0.40;;
76599;SDS011;65489;52.048;6.090;2023-04-06T01:32:04;0.73;;;0.38;;
76599;SDS011;65489;52.048;6.090;2023-04-06T01:34:34;0.82;;;0.50;;
76599;SDS011;65489;52.048;6.090;2023-04-06T01:37:02;0.98;;;0.50;;
76599;SDS011;65489;52.048;6.090;2023-04-06T01:39:29;0.75;;;0.40;;
76599;SDS011;65489;52.048;6.090;2023-04-06T01:41:55;0.60;;;0.47;;
76599;SDS011;65489;52.048;6.090;2023-04-06T01:44:21;2.65;;;0.50;;
76599;SDS011;65489;52.048;6.090;2023-04-06T01:46:52;0.63;;;0.45;;
76599;SDS011;65489;52.048;6.090;2023-04-06T01:49:18;0.50;;;0.50;;
76599;SDS011;65489;52.048;6.090;2023-04-06T01:51:49;0.77;;;0.57;;
76599;SDS011;65489;52.048;6.090;2023-04-06T01:54:14;1.15;;;0.45;;
76599;SDS011;65489;52.048;6.090;2023-04-06T01:57:10;0.70;;;0.40;;
76599;SDS011;65489;52.048;6.090;2023-04-06T01:59:41;0.60;;;0.43;;
76599;SDS011;65489;52.048;6.090;2023-04-06T02:02:14;0.70;;;0.50;;
76599;SDS011;65489;52.048;6.090;2023-04-06T02:04:48;0.50;;;0.32;;
76599;SDS011;65489;52.048;6.090;2023-04-06T02:07:15;0.90;;;0.50;;
76599;SDS011;65489;52.048;6.090;2023-04-06T02:09:41;1.25;;;0.40;;
76599;SDS011;65489;52.048;6.090;2023-04-06T02:12:12;0.70;;;0.47;;
76599;SDS011;65489;52.048;6.090;2023-04-06T02:14:38;0.93;;;0.50;;
76599;SDS011;65489;52.048;6.090;2023-04-06T02:17:03;1.02;;;0.50;;
76599;SDS011;65489;52.048;6.090;2023-04-06T02:19:29;0.45;;;0.35;;
76599;SDS011;65489;52.048;6.090;2023-04-06T02:21:54;0.70;;;0.50;;
76599;SDS011;65489;52.048;6.090;2023-04-06T02:24:21;0.85;;;0.60;;
76599;SDS011;65489;52.048;6.090;2023-04-06T02:26:47;0.70;;;0.50;;
76599;SDS011;65489;52.048;6.090;2023-04-06T02:29:12;0.75;;;0.50;;
76599;SDS011;65489;52.048;6.090;2023-04-06T02:31:38;1.40;;;0.40;;
76599;SDS011;65489;52.048;6.090;2023-04-06T02:34:04;1.50;;;0.50;;
76599;SDS011;65489;52.048;6.090;2023-04-06T02:36:31;0.75;;;0.40;;
76599;SDS011;65489;52.048;6.090;2023-04-06T02:38:57;1.85;;;0.60;;
76599;SDS011;65489;52.048;6.090;2023-04-06T02:41:22;0.70;;;0.50;;
76599;SDS011;65489;52.048;6.090;2023-04-06T02:43:48;0.70;;;0.50;;
76599;SDS011;65489;52.048;6.090;2023-04-06T02:46:23;1.00;;;0.70;;
76599;SDS011;65489;52.048;6.090;2023-04-06T02:48:48;0.65;;;0.55;;
76599;SDS011;65489;52.048;6.090;2023-04-06T02:51:14;0.70;;;0.50;;
76599;SDS011;65489;52.048;6.090;2023-04-06T02:53:44;0.65;;;0.50;;
76599;SDS011;65489;52.048;6.090;2023-04-06T02:56:11;0.60;;;0.50;;
76599;SDS011;65489;52.048;6.090;2023-04-06T02:58:45;0.75;;;0.50;;
76599;SDS011;65489;52.048;6.090;2023-04-06T03:01:10;0.77;;;0.50;;
76599;SDS011;65489;52.048;6.090;2023-04-06T03:03:38;2.47;;;0.60;;
76599;SDS011;65489;52.048;6.090;2023-04-06T03:06:07;0.95;;;0.50;;
76599;SDS011;65489;52.048;6.090;2023-04-06T03:08:33;0.85;;;0.50;;
76599;SDS011;65489;52.048;6.090;2023-04-06T03:10:58;0.80;;;0.50;;
76599;SDS011;65489;52.048;6.090;2023-04-06T03:13:33;1.67;;;0.60;;
76599;SDS011;65489;52.048;6.090;2023-04-06T03:15:58;0.60;;;0.35;;
76599;SDS011;65489;52.048;6.090;2023-04-06T03:18:25;0.82;;;0.43;;
76599;SDS011;65489;52.048;6.090;2023-04-06T03:20:52;0.60;;;0.43;;
76599;SDS011;65489;52.048;6.090;2023-04-06T03:23:25;0.70;;;0.60;;
76599;SDS011;65489;52.048;6.090;2023-04-06T03:25:55;1.10;;;0.52;;
76599;SDS011;65489;52.048;6.090;2023-04-06T03:28:21;1.75;;;0.50;;
76599;SDS011;65489;52.048;6.090;2023-04-06T03:30:53;0.70;;;0.50;;
76599;SDS011;65489;52.048;6.090;2023-04-06T03:33:35;1.45;;;0.50;;
76599;SDS011;65489;52.048;6.090;2023-04-06T03:36:00;0.82;;;0.40;;
76599;SDS011;65489;52.048;6.090;2023-04-06T03:38:27;0.50;;;0.43;;
76599;SDS011;65489;52.048;6.090;2023-04-06T03:40:53;1.40;;;0.60;;
76599;SDS011;65489;52.048;6.090;2023-04-06T03:43:23;0.80;;;0.60;;
76599;SDS011;65489;52.048;6.090;2023-04-06T03:45:48;0.98;;;0.60;;
76599;SDS011;65489;52.048;6.090;2023-04-06T03:48:14;1.75;;;0.60;;
76599;SDS011;65489;52.048;6.090;2023-04-06T03:50:41;0.75;;;0.60;;
76599;SDS011;65489;52.048;6.090;2023-04-06T03:53:06;0.65;;;0.50;;
76599;SDS011;65489;52.048;6.090;2023-04-06T03:55:32;0.50;;;0.45;;
76599;SDS011;65489;52.048;6.090;2023-04-06T03:57:58;1.35;;;0.65;;
76599;SDS011;65489;52.048;6.090;2023-04-06T04:00:23;0.60;;;0.40;;
76599;SDS011;65489;52.048;6.090;2023-04-06T04:02:49;1.67;;;0.63;;
76599;SDS011;65489;52.048;6.090;2023-04-06T04:05:15;0.80;;;0.50;;
76599;SDS011;65489;52.048;6.090;2023-04-06T04:07:41;0.75;;;0.47;;
76599;SDS011;65489;52.048;6.090;2023-04-06T04:10:09;1.10;;;0.60;;
76599;SDS011;65489;52.048;6.090;2023-04-06T04:12:34;0.88;;;0.60;;
76599;SDS011;65489;52.048;6.090;2023-04-06T04:15:00;0.80;;;0.50;;
76599;SDS011;65489;52.048;6.090;2023-04-06T04:17:25;0.68;;;0.55;;
76599;SDS011;65489;52.048;6.090;2023-04-06T04:19:51;0.60;;;0.57;;
76599;SDS011;65489;52.048;6.090;2023-04-06T04:22:16;0.93;;;0.50;;
76599;SDS011;65489;52.048;6.090;2023-04-06T04:24:42;1.50;;;0.60;;
76599;SDS011;65489;52.048;6.090;2023-04-06T04:27:08;1.67;;;0.68;;
76599;SDS011;65489;52.048;6.090;2023-04-06T04:29:34;1.13;;;0.52;;
76599;SDS011;65489;52.048;6.090;2023-04-06T04:32:03;0.68;;;0.50;;
76599;SDS011;65489;52.048;6.090;2023-04-06T04:34:29;0.65;;;0.47;;
76599;SDS011;65489;52.048;6.090;2023-04-06T04:36:56;0.77;;;0.50;;
76599;SDS011;65489;52.048;6.090;2023-04-06T04:39:40;1.38;;;0.50;;
76599;SDS011;65489;52.048;6.090;2023-04-06T04:42:06;1.15;;;0.70;;
76599;SDS011;65489;52.048;6.090;2023-04-06T04:44:33;0.90;;;0.70;;
76599;SDS011;65489;52.048;6.090;2023-04-06T04:47:00;0.80;;;0.60;;
76599;SDS011;65489;52.048;6.090;2023-04-06T04:49:36;1.50;;;0.50;;
76599;SDS011;65489;52.048;6.090;2023-04-06T04:52:02;1.67;;;0.68;;
76599;SDS011;65489;52.048;6.090;2023-04-06T04:54:37;0.52;;;0.45;;
76599;SDS011;65489;52.048;6.090;2023-04-06T04:57:03;1.23;;;0.50;;
76599;SDS011;65489;52.048;6.090;2023-04-06T04:59:39;0.80;;;0.50;;
76599;SDS011;65489;52.048;6.090;2023-04-06T05:02:13;1.10;;;0.60;;
76599;SDS011;65489;52.048;6.090;2023-04-06T05:04:48;1.02;;;0.70;;
76599;SDS011;65489;52.048;6.090;2023-04-06T05:07:19;0.60;;;0.50;;
76599;SDS011;65489;52.048;6.090;2023-04-06T05:09:46;1.42;;;0.70;;
76599;SDS011;65489;52.048;6.090;2023-04-06T05:12:13;0.88;;;0.60;;
76599;SDS011;65489;52.048;6.090;2023-04-06T05:14:49;0.75;;;0.60;;
76599;SDS011;65489;52.048;6.090;2023-04-06T05:17:17;1.83;;;0.70;;
76599;SDS011;65489;52.048;6.090;2023-04-06T05:19:43;0.70;;;0.52;;
76599;SDS011;65489;52.048;6.090;2023-04-06T05:22:09;0.73;;;0.70;;
76599;SDS011;65489;52.048;6.090;2023-04-06T05:27:05;1.35;;;0.80;;
76599;SDS011;65489;52.048;6.090;2023-04-06T05:29:31;0.70;;;0.60;;
76599;SDS011;65489;52.048;6.090;2023-04-06T05:31:57;1.10;;;0.70;;
76599;SDS011;65489;52.048;6.090;2023-04-06T05:34:22;2.13;;;0.60;;
76599;SDS011;65489;52.048;6.090;2023-04-06T05:36:49;1.52;;;0.82;;
76599;SDS011;65489;52.048;6.090;2023-04-06T05:39:18;1.80;;;0.95;;
76599;SDS011;65489;52.048;6.090;2023-04-06T05:41:49;0.70;;;0.43;;
76599;SDS011;65489;52.048;6.090;2023-04-06T05:44:20;1.27;;;0.70;;
76599;SDS011;65489;52.048;6.090;2023-04-06T05:46:54;1.33;;;0.80;;
76599;SDS011;65489;52.048;6.090;2023-04-06T05:49:20;1.83;;;0.90;;
76599;SDS011;65489;52.048;6.090;2023-04-06T05:51:45;0.88;;;0.73;;
76599;SDS011;65489;52.048;6.090;2023-04-06T05:54:11;1.23;;;0.80;;
76599;SDS011;65489;52.048;6.090;2023-04-06T05:56:37;0.88;;;0.70;;
76599;SDS011;65489;52.048;6.090;2023-04-06T05:59:05;0.85;;;0.63;;
76599;SDS011;65489;52.048;6.090;2023-04-06T06:01:30;2.00;;;0.75;;
76599;SDS011;65489;52.048;6.090;2023-04-06T06:03:56;1.00;;;0.80;;
76599;SDS011;65489;52.048;6.090;2023-04-06T06:06:28;1.23;;;0.80;;
76599;SDS011;65489;52.048;6.090;2023-04-06T06:09:12;1.17;;;0.80;;
76599;SDS011;65489;52.048;6.090;2023-04-06T06:11:44;0.82;;;0.68;;
76599;SDS011;65489;52.048;6.090;2023-04-06T06:14:13;1.13;;;0.70;;
76599;SDS011;65489;52.048;6.090;2023-04-06T06:16:40;0.88;;;0.60;;
76599;SDS011;65489;52.048;6.090;2023-04-06T06:19:07;1.20;;;0.73;;
76599;SDS011;65489;52.048;6.090;2023-04-06T06:21:33;1.30;;;0.90;;
76599;SDS011;65489;52.048;6.090;2023-04-06T06:23:58;1.00;;;0.80;;
76599;SDS011;65489;52.048;6.090;2023-04-06T06:26:27;0.70;;;0.60;;
76599;SDS011;65489;52.048;6.090;2023-04-06T06:28:53;1.25;;;0.70;;
76599;SDS011;65489;52.048;6.090;2023-04-06T06:31:19;1.10;;;0.88;;
76599;SDS011;65489;52.048;6.090;2023-04-06T06:33:48;1.35;;;0.90;;
76599;SDS011;65489;52.048;6.090;2023-04-06T06:36:18;1.23;;;0.65;;
76599;SDS011;65489;52.048;6.090;2023-04-06T06:38:44;1.02;;;0.75;;
76599;SDS011;65489;52.048;6.090;2023-04-06T06:41:10;1.50;;;1.00;;
76599;SDS011;65489;52.048;6.090;2023-04-06T06:43:37;1.05;;;0.82;;
76599;SDS011;65489;52.048;6.090;2023-04-06T06:48:31;1.27;;;0.70;;
76599;SDS011;65489;52.048;6.090;2023-04-06T06:50:57;1.33;;;0.93;;
76599;SDS011;65489;52.048;6.090;2023-04-06T06:53:23;1.25;;;0.90;;
76599;SDS011;65489;52.048;6.090;2023-04-06T06:55:48;1.63;;;0.80;;
76599;SDS011;65489;52.048;6.090;2023-04-06T06:58:14;1.15;;;0.95;;
76599;SDS011;65489;52.048;6.090;2023-04-06T07:00:40;1.20;;;0.80;;
76599;SDS011;65489;52.048;6.090;2023-04-06T07:03:06;1.63;;;0.80;;
76599;SDS011;65489;52.048;6.090;2023-04-06T07:05:32;1.00;;;0.80;;
76599;SDS011;65489;52.048;6.090;2023-04-06T07:07:57;1.17;;;0.90;;
76599;SDS011;65489;52.048;6.090;2023-04-06T07:10:24;2.00;;;0.90;;
76599;SDS011;65489;52.048;6.090;2023-04-06T07:12:50;1.10;;;0.70;;
76599;SDS011;65489;52.048;6.090;2023-04-06T07:15:16;1.02;;;0.73;;
76599;SDS011;65489;52.048;6.090;2023-04-06T07:17:41;1.05;;;0.82;;
76599;SDS011;65489;52.048;6.090;2023-04-06T07:20:08;0.88;;;0.80;;
76599;SDS011;65489;52.048;6.090;2023-04-06T07:22:35;1.20;;;0.73;;
76599;SDS011;65489;52.048;6.090;2023-04-06T07:25:01;2.28;;;0.95;;
76599;SDS011;65489;52.048;6.090;2023-04-06T07:27:26;2.53;;;1.20;;
76599;SDS011;65489;52.048;6.090;2023-04-06T07:29:52;1.17;;;0.85;;
76599;SDS011;65489;52.048;6.090;2023-04-06T07:32:17;1.23;;;0.80;;
76599;SDS011;65489;52.048;6.090;2023-04-06T07:34:43;1.27;;;1.00;;
76599;SDS011;65489;52.048;6.090;2023-04-06T07:37:10;1.73;;;0.90;;
76599;SDS011;65489;52.048;6.090;2023-04-06T07:39:36;2.05;;;0.88;;
76599;SDS011;65489;52.048;6.090;2023-04-06T07:42:01;1.00;;;0.80;;
76599;SDS011;65489;52.048;6.090;2023-04-06T07:44:27;1.33;;;1.00;;
76599;SDS011;65489;52.048;6.090;2023-04-06T07:46:52;2.03;;;0.88;;
76599;SDS011;65489;52.048;6.090;2023-04-06T07:49:20;1.98;;;0.90;;
76599;SDS011;65489;52.048;6.090;2023-04-06T07:51:46;1.63;;;1.20;;
76599;SDS011;65489;52.048;6.090;2023-04-06T07:54:11;1.70;;;0.93;;
76599;SDS011;65489;52.048;6.090;2023-04-06T07:56:37;3.38;;;1.40;;
76599;SDS011;65489;52.048;6.090;2023-04-06T07:59:02;7.63;;;1.88;;
76599;SDS011;65489;52.048;6.090;2023-04-06T08:01:28;4.55;;;1.88;;
76599;SDS011;65489;52.048;6.090;2023-04-06T08:03:54;8.90;;;2.30;;
76599;SDS011;65489;52.048;6.090;2023-04-06T08:06:20;9.10;;;2.55;;
76599;SDS011;65489;52.048;6.090;2023-04-06T08:08:46;10.68;;;2.65;;
76599;SDS011;65489;52.048;6.090;2023-04-06T08:11:11;11.63;;;2.60;;
76599;SDS011;65489;52.048;6.090;2023-04-06T08:13:37;11.60;;;3.30;;
76599;SDS011;65489;52.048;6.090;2023-04-06T08:16:02;6.45;;;2.33;;
76599;SDS011;65489;52.048;6.090;2023-04-06T08:18:28;8.65;;;2.80;;
76599;SDS011;65489;52.048;6.090;2023-04-06T08:20:55;7.32;;;2.50;;
76599;SDS011;65489;52.048;6.090;2023-04-06T08:23:20;9.65;;;2.78;;
76599;SDS011;65489;52.048;6.090;2023-04-06T08:25:46;8.98;;;2.85;;
76599;SDS011;65489;52.048;6.090;2023-04-06T08:28:11;7.25;;;2.15;;
76599;SDS011;65489;52.048;6.090;2023-04-06T08:30:39;10.40;;;2.60;;
76599;SDS011;65489;52.048;6.090;2023-04-06T08:33:05;7.68;;;2.67;;
76599;SDS011;65489;52.048;6.090;2023-04-06T08:35:31;9.57;;;2.75;;
76599;SDS011;65489;52.048;6.090;2023-04-06T08:37:56;8.45;;;2.53;;
76599;SDS011;65489;52.048;6.090;2023-04-06T08:40:22;9.93;;;3.15;;
76599;SDS011;65489;52.048;6.090;2023-04-06T08:42:54;7.22;;;2.30;;
76599;SDS011;65489;52.048;6.090;2023-04-06T08:45:21;8.25;;;2.33;;
76599;SDS011;65489;52.048;6.090;2023-04-06T08:47:50;10.02;;;2.67;;
76599;SDS011;65489;52.048;6.090;2023-04-06T08:50:16;7.50;;;2.60;;
76599;SDS011;65489;52.048;6.090;2023-04-06T08:52:43;6.72;;;2.83;;
76599;SDS011;65489;52.048;6.090;2023-04-06T08:55:09;10.75;;;2.78;;
76599;SDS011;65489;52.048;6.090;2023-04-06T08:57:34;8.40;;;2.40;;
76599;SDS011;65489;52.048;6.090;2023-04-06T09:00:01;5.95;;;2.75;;
76599;SDS011;65489;52.048;6.090;2023-04-06T09:02:27;6.15;;;2.50;;
76599;SDS011;65489;52.048;6.090;2023-04-06T09:04:53;7.50;;;2.60;;
76599;SDS011;65489;52.048;6.090;2023-04-06T09:07:18;5.70;;;2.95;;
76599;SDS011;65489;52.048;6.090;2023-04-06T09:09:44;5.28;;;2.45;;
76599;SDS011;65489;52.048;6.090;2023-04-06T09:12:28;6.30;;;2.30;;
76599;SDS011;65489;52.048;6.090;2023-04-06T09:14:55;7.00;;;2.30;;
76599;SDS011;65489;52.048;6.090;2023-04-06T09:17:22;6.38;;;2.40;;
76599;SDS011;65489;52.048;6.090;2023-04-06T09:19:49;7.43;;;2.50;;
76599;SDS011;65489;52.048;6.090;2023-04-06T09:22:15;7.57;;;2.92;;
76599;SDS011;65489;52.048;6.090;2023-04-06T09:24:44;8.55;;;2.55;;
76599;SDS011;65489;52.048;6.090;2023-04-06T09:27:11;6.10;;;2.05;;
76599;SDS011;65489;52.048;6.090;2023-04-06T09:29:37;6.20;;;2.67;;
76599;SDS011;65489;52.048;6.090;2023-04-06T09:32:03;4.28;;;2.20;;
76599;SDS011;65489;52.048;6.090;2023-04-06T09:34:29;8.80;;;2.65;;
76599;SDS011;65489;52.048;6.090;2023-04-06T09:36:55;5.25;;;2.10;;
76599;SDS011;65489;52.048;6.090;2023-04-06T09:39:21;5.95;;;2.08;;
76599;SDS011;65489;52.048;6.090;2023-04-06T09:41:49;6.95;;;2.63;;
76599;SDS011;65489;52.048;6.090;2023-04-06T09:44:15;6.50;;;2.35;;
76599;SDS011;65489;52.048;6.090;2023-04-06T09:46:41;5.05;;;2.10;;
76599;SDS011;65489;52.048;6.090;2023-04-06T09:49:08;6.88;;;2.40;;
76599;SDS011;65489;52.048;6.090;2023-04-06T09:51:38;4.90;;;2.20;;
76599;SDS011;65489;52.048;6.090;2023-04-06T09:54:03;7.38;;;2.38;;
76599;SDS011;65489;52.048;6.090;2023-04-06T09:59:13;5.90;;;2.05;;
76599;SDS011;65489;52.048;6.090;2023-04-06T10:01:41;7.32;;;2.58;;
76599;SDS011;65489;52.048;6.090;2023-04-06T10:04:13;8.95;;;2.85;;
76599;SDS011;65489;52.048;6.090;2023-04-06T10:06:42;5.78;;;2.17;;
76599;SDS011;65489;52.048;6.090;2023-04-06T10:09:08;6.43;;;2.05;;
76599;SDS011;65489;52.048;6.090;2023-04-06T10:11:34;6.35;;;2.33;;
76599;SDS011;65489;52.048;6.090;2023-04-06T10:14:00;7.55;;;2.63;;
76599;SDS011;65489;52.048;6.090;2023-04-06T10:16:25;3.97;;;1.90;;
76599;SDS011;65489;52.048;6.090;2023-04-06T10:18:54;6.75;;;2.10;;
76599;SDS011;65489;52.048;6.090;2023-04-06T10:21:27;6.57;;;2.70;;
76599;SDS011;65489;52.048;6.090;2023-04-06T10:23:55;5.07;;;2.00;;
76599;SDS011;65489;52.048;6.090;2023-04-06T10:26:24;7.50;;;2.30;;
76599;SDS011;65489;52.048;6.090;2023-04-06T10:28:50;4.85;;;2.35;;
76599;SDS011;65489;52.048;6.090;2023-04-06T10:31:23;4.25;;;1.88;;
76599;SDS011;65489;52.048;6.090;2023-04-06T10:33:55;4.20;;;1.77;;
76599;SDS011;65489;52.048;6.090;2023-04-06T10:36:22;3.55;;;2.00;;
76599;SDS011;65489;52.048;6.090;2023-04-06T10:38:53;5.30;;;2.17;;
76599;SDS011;65489;52.048;6.090;2023-04-06T10:41:20;3.67;;;1.85;;
76599;SDS011;65489;52.048;6.090;2023-04-06T10:43:45;4.30;;;2.13;;
76599;SDS011;65489;52.048;6.090;2023-04-06T10:46:24;4.78;;;1.88;;
76599;SDS011;65489;52.048;6.090;2023-04-06T10:48:54;3.42;;;1.77;;
76599;SDS011;65489;52.048;6.090;2023-04-06T10:51:25;5.32;;;2.20;;
76599;SDS011;65489;52.048;6.090;2023-04-06T10:53:55;3.65;;;2.10;;
76599;SDS011;65489;52.048;6.090;2023-04-06T10:56:22;4.50;;;1.95;;
76599;SDS011;65489;52.048;6.090;2023-04-06T10:58:52;4.03;;;2.22;;
76599;SDS011;65489;52.048;6.090;2023-04-06T11:01:19;4.32;;;1.90;;
76599;SDS011;65489;52.048;6.090;2023-04-06T11:03:45;2.90;;;1.77;;
76599;SDS011;65489;52.048;6.090;2023-04-06T11:06:22;3.30;;;2.05;;
76599;SDS011;65489;52.048;6.090;2023-04-06T11:08:49;6.47;;;2.25;;
76599;SDS011;65489;52.048;6.090;2023-04-06T11:11:16;3.40;;;1.63;;
76599;SDS011;65489;52.048;6.090;2023-04-06T11:13:49;4.07;;;2.00;;
76599;SDS011;65489;52.048;6.090;2023-04-06T11:16:17;2.42;;;1.33;;
76599;SDS011;65489;52.048;6.090;2023-04-06T11:18:54;5.82;;;2.22;;
76599;SDS011;65489;52.048;6.090;2023-04-06T11:21:31;2.95;;;1.90;;
76599;SDS011;65489;52.048;6.090;2023-04-06T11:24:08;2.47;;;1.70;;
76599;SDS011;65489;52.048;6.090;2023-04-06T11:26:40;3.40;;;1.92;;
76599;SDS011;65489;52.048;6.090;2023-04-06T11:29:08;2.50;;;1.65;;
76599;SDS011;65489;52.048;6.090;2023-04-06T11:31:40;3.35;;;2.05;;
76599;SDS011;65489;52.048;6.090;2023-04-06T11:34:10;4.13;;;1.80;;
76599;SDS011;65489;52.048;6.090;2023-04-06T11:36:39;3.10;;;1.67;;
76599;SDS011;65489;52.048;6.090;2023-04-06T11:39:06;4.47;;;1.75;;
76599;SDS011;65489;52.048;6.090;2023-04-06T11:41:32;2.88;;;1.60;;
76599;SDS011;65489;52.048;6.090;2023-04-06T11:43:58;4.25;;;1.70;;
76599;SDS011;65489;52.048;6.090;2023-04-06T11:46:26;3.35;;;1.45;;
76599;SDS011;65489;52.048;6.090;2023-04-06T11:48:51;3.88;;;1.92;;
76599;SDS011;65489;52.048;6.090;2023-04-06T11:51:23;2.65;;;1.90;;
76599;SDS011;65489;52.048;6.090;2023-04-06T11:53:54;2.80;;;1.60;;
76599;SDS011;65489;52.048;6.090;2023-04-06T11:56:28;3.45;;;1.70;;
76599;SDS011;65489;52.048;6.090;2023-04-06T11:58:54;3.00;;;1.77;;
76599;SDS011;65489;52.048;6.090;2023-04-06T12:01:23;3.63;;;1.58;;
76599;SDS011;65489;52.048;6.090;2023-04-06T12:03:50;2.72;;;1.48;;
76599;SDS011;65489;52.048;6.090;2023-04-06T12:06:16;3.58;;;2.15;;
76599;SDS011;65489;52.048;6.090;2023-04-06T12:08:41;4.03;;;1.73;;
76599;SDS011;65489;52.048;6.090;2023-04-06T12:11:07;3.88;;;1.83;;
76599;SDS011;65489;52.048;6.090;2023-04-06T12:13:32;2.22;;;1.50;;
76599;SDS011;65489;52.048;6.090;2023-04-06T12:15:58;2.72;;;1.42;;
76599;SDS011;65489;52.048;6.090;2023-04-06T12:18:23;3.05;;;1.48;;
76599;SDS011;65489;52.048;6.090;2023-04-06T12:20:48;2.28;;;1.60;;
76599;SDS011;65489;52.048;6.090;2023-04-06T12:23:14;2.20;;;1.45;;
76599;SDS011;65489;52.048;6.090;2023-04-06T12:25:40;2.53;;;1.60;;
76599;SDS011;65489;52.048;6.090;2023-04-06T12:28:06;5.60;;;1.90;;
76599;SDS011;65489;52.048;6.090;2023-04-06T12:30:32;1.90;;;1.20;;
76599;SDS011;65489;52.048;6.090;2023-04-06T12:32:57;1.70;;;1.20;;
76599;SDS011;65489;52.048;6.090;2023-04-06T12:35:23;2.38;;;1.30;;
76599;SDS011;65489;52.048;6.090;2023-04-06T12:37:48;2.80;;;1.77;;
76599;SDS011;65489;52.048;6.090;2023-04-06T12:40:14;2.13;;;1.80;;
76599;SDS011;65489;52.048;6.090;2023-04-06T12:42:39;2.25;;;1.40;;
76599;SDS011;65489;52.048;6.090;2023-04-06T12:45:08;2.30;;;1.33;;
76599;SDS011;65489;52.048;6.090;2023-04-06T12:47:34;3.13;;;1.42;;
76599;SDS011;65489;52.048;6.090;2023-04-06T12:50:01;2.53;;;1.45;;
76599;SDS011;65489;52.048;6.090;2023-04-06T12:52:26;2.42;;;1.42;;
76599;SDS011;65489;52.048;6.090;2023-04-06T12:54:52;1.38;;;1.05;;
76599;SDS011;65489;52.048;6.090;2023-04-06T12:57:17;2.45;;;1.30;;
76599;SDS011;65489;52.048;6.090;2023-04-06T12:59:43;2.28;;;1.20;;
76599;SDS011;65489;52.048;6.090;2023-04-06T13:02:09;2.83;;;1.33;;
76599;SDS011;65489;52.048;6.090;2023-04-06T13:04:35;2.45;;;1.20;;
76599;SDS011;65489;52.048;6.090;2023-04-06T13:07:01;1.95;;;1.27;;
76599;SDS011;65489;52.048;6.090;2023-04-06T13:09:26;2.38;;;1.30;;
76599;SDS011;65489;52.048;6.090;2023-04-06T13:11:51;1.77;;;1.20;;
76599;SDS011;65489;52.048;6.090;2023-04-06T13:14:17;1.65;;;0.90;;
76599;SDS011;65489;52.048;6.090;2023-04-06T13:16:42;2.58;;;1.05;;
76599;SDS011;65489;52.048;6.090;2023-04-06T13:19:08;2.35;;;1.27;;
76599;SDS011;65489;52.048;6.090;2023-04-06T13:21:33;1.98;;;1.20;;
76599;SDS011;65489;52.048;6.090;2023-04-06T13:23:59;2.15;;;1.30;;
76599;SDS011;65489;52.048;6.090;2023-04-06T13:26:25;2.35;;;1.33;;
76599;SDS011;65489;52.048;6.090;2023-04-06T13:28:50;1.73;;;0.98;;
76599;SDS011;65489;52.048;6.090;2023-04-06T13:31:16;2.92;;;1.08;;
76599;SDS011;65489;52.048;6.090;2023-04-06T13:33:41;2.00;;;1.33;;
76599;SDS011;65489;52.048;6.090;2023-04-06T13:36:07;2.33;;;1.10;;
76599;SDS011;65489;52.048;6.090;2023-04-06T13:38:33;1.92;;;1.13;;
76599;SDS011;65489;52.048;6.090;2023-04-06T13:40:59;2.60;;;1.20;;
76599;SDS011;65489;52.048;6.090;2023-04-06T13:43:24;2.05;;;1.20;;
76599;SDS011;65489;52.048;6.090;2023-04-06T13:45:52;2.72;;;1.10;;
76599;SDS011;65489;52.048;6.090;2023-04-06T13:48:20;1.88;;;1.08;;
76599;SDS011;65489;52.048;6.090;2023-04-06T13:50:45;2.45;;;1.42;;
76599;SDS011;65489;52.048;6.090;2023-04-06T13:53:11;2.05;;;1.10;;
76599;SDS011;65489;52.048;6.090;2023-04-06T13:55:36;1.60;;;0.95;;
76599;SDS011;65489;52.048;6.090;2023-04-06T13:58:02;1.92;;;1.08;;
76599;SDS011;65489;52.048;6.090;2023-04-06T14:00:27;2.35;;;1.20;;
76599;SDS011;65489;52.048;6.090;2023-04-06T14:02:53;1.48;;;0.90;;
76599;SDS011;65489;52.048;6.090;2023-04-06T14:05:19;1.15;;;0.90;;
76599;SDS011;65489;52.048;6.090;2023-04-06T14:07:45;1.70;;;1.10;;
76599;SDS011;65489;52.048;6.090;2023-04-06T14:10:11;2.10;;;1.17;;
76599;SDS011;65489;52.048;6.090;2023-04-06T14:12:41;1.40;;;1.08;;
76599;SDS011;65489;52.048;6.090;2023-04-06T14:15:09;1.83;;;1.00;;
76599;SDS011;65489;52.048;6.090;2023-04-06T14:17:35;1.52;;;1.02;;
76599;SDS011;65489;52.048;6.090;2023-04-06T14:20:01;1.10;;;0.90;;
76599;SDS011;65489;52.048;6.090;2023-04-06T14:22:27;1.40;;;0.90;;
76599;SDS011;65489;52.048;6.090;2023-04-06T14:24:53;2.17;;;1.10;;
76599;SDS011;65489;52.048;6.090;2023-04-06T14:27:18;3.10;;;1.00;;
76599;SDS011;65489;52.048;6.090;2023-04-06T14:29:43;1.70;;;0.98;;
76599;SDS011;65489;52.048;6.090;2023-04-06T14:32:09;1.90;;;1.10;;
76599;SDS011;65489;52.048;6.090;2023-04-06T14:34:38;2.05;;;0.98;;
76599;SDS011;65489;52.048;6.090;2023-04-06T14:37:03;1.33;;;0.93;;
76599;SDS011;65489;52.048;6.090;2023-04-06T14:39:29;1.23;;;0.85;;
76599;SDS011;65489;52.048;6.090;2023-04-06T14:41:54;2.90;;;1.33;;
76599;SDS011;65489;52.048;6.090;2023-04-06T14:44:20;1.85;;;1.10;;
76599;SDS011;65489;52.048;6.090;2023-04-06T14:46:46;1.75;;;1.10;;
76599;SDS011;65489;52.048;6.090;2023-04-06T14:49:11;1.15;;;0.80;;
76599;SDS011;65489;52.048;6.090;2023-04-06T14:51:37;1.45;;;0.80;;
76599;SDS011;65489;52.048;6.090;2023-04-06T14:54:04;1.48;;;1.00;;
76599;SDS011;65489;52.048;6.090;2023-04-06T14:56:30;1.05;;;0.80;;